Time;durP1;ratioP1;P1;durP2;ratioP2;P2;SDS_P1;SDS_P2;PMS_P1;PMS_P2;Temp;Humidity;BMP_temperature;BMP_pressure;BME280_temperature;BME280_humidity;BME280_pressure;Samples;Min_cycle;Max_cycle;Signal;HPM_P1;HPM_P2
2022/01/31 00:00:51;;;;;;;1.20;1.00;;;;;;;;;;5053216;28;20025;-75
2022/01/31 00:03:17;;;;;;;0.80;0.77;;;;;;;;;;5052895;28;20017;-74
2022/01/31 00:05:43;;;;;;;1.17;1.00;;;;;;;;;;5052928;28;20021;-74
2022/01/31 00:08:09;;;;;;;1.42;0.88;;;;;;;;;;5053320;28;20484;-75
2022/01/31 00:10:36;;;;;;;1.58;1.13;;;;;;;;;;5053492;28;20036;-75
2022/01/31 00:13:06;;;;;;;0.95;0.82;;;;;;;;;;5051726;28;20024;-75
2022/01/31 00:15:37;;;;;;;1.27;0.98;;;;;;;;;;5053093;28;20033;-74
2022/01/31 00:18:03;;;;;;;1.33;0.93;;;;;;;;;;5051534;28;20091;-75
2022/01/31 00:20:30;;;;;;;0.75;0.75;;;;;;;;;;5052819;28;20021;-75
2022/01/31 00:22:56;;;;;;;1.27;0.90;;;;;;;;;;5051546;28;20063;-74
2022/01/31 00:25:22;;;;;;;1.02;0.80;;;;;;;;;;5052847;28;20032;-74
2022/01/31 00:27:48;;;;;;;1.40;1.10;;;;;;;;;;5051502;28;20028;-74
2022/01/31 00:30:14;;;;;;;1.15;0.77;;;;;;;;;;5052775;28;20029;-74
2022/01/31 00:32:41;;;;;;;0.98;0.77;;;;;;;;;;5052843;28;20025;-74
2022/01/31 00:35:07;;;;;;;1.33;0.90;;;;;;;;;;5040872;28;20116;-74
2022/01/31 00:37:33;;;;;;;0.85;0.80;;;;;;;;;;5032595;28;20028;-75
2022/01/31 00:39:59;;;;;;;1.20;0.80;;;;;;;;;;5031525;28;20124;-74
2022/01/31 00:42:27;;;;;;;0.98;0.88;;;;;;;;;;5044750;28;20029;-75
2022/01/31 00:44:56;;;;;;;0.90;0.70;;;;;;;;;;5051475;28;20068;-75
2022/01/31 00:47:29;;;;;;;0.88;0.88;;;;;;;;;;5052399;28;20021;-75
2022/01/31 00:52:30;;;;;;;1.00;0.85;;;;;;;;;;5048655;28;20260;-74
2022/01/31 00:54:56;;;;;;;0.80;0.70;;;;;;;;;;5032688;28;20034;-75
2022/01/31 00:57:22;;;;;;;0.75;0.70;;;;;;;;;;5032130;28;20092;-75
2022/01/31 00:59:51;;;;;;;1.08;0.85;;;;;;;;;;5032462;28;20415;-75
2022/01/31 01:02:17;;;;;;;0.90;0.80;;;;;;;;;;5031913;28;20025;-74
2022/01/31 01:04:44;;;;;;;2.35;0.80;;;;;;;;;;5032844;28;20136;-74
2022/01/31 01:07:11;;;;;;;0.90;0.68;;;;;;;;;;5032293;28;20017;-74
2022/01/31 01:09:37;;;;;;;0.85;0.70;;;;;;;;;;5032343;28;20381;-75
2022/01/31 01:12:04;;;;;;;3.20;0.90;;;;;;;;;;5030497;28;20374;-74
2022/01/31 01:14:30;;;;;;;1.08;0.98;;;;;;;;;;5032219;28;20409;-74
2022/01/31 01:16:56;;;;;;;1.20;1.00;;;;;;;;;;5032156;28;20032;-75
2022/01/31 01:19:23;;;;;;;1.00;0.80;;;;;;;;;;5032109;28;20464;-75
2022/01/31 01:21:49;;;;;;;1.27;0.85;;;;;;;;;;5031760;28;20161;-74
2022/01/31 01:24:15;;;;;;;0.60;0.60;;;;;;;;;;5031934;28;20044;-75
2022/01/31 01:26:42;;;;;;;1.38;0.70;;;;;;;;;;5032511;28;20397;-75
2022/01/31 01:29:08;;;;;;;0.50;0.50;;;;;;;;;;5032374;28;20029;-74
2022/01/31 01:31:34;;;;;;;1.15;0.80;;;;;;;;;;5033864;28;20033;-74
2022/01/31 01:34:00;;;;;;;0.63;0.57;;;;;;;;;;5038612;28;20048;-75
2022/01/31 01:36:26;;;;;;;0.88;0.60;;;;;;;;;;5056131;28;20052;-75
2022/01/31 01:38:53;;;;;;;2.30;0.88;;;;;;;;;;5056073;28;20104;-75
2022/01/31 01:41:19;;;;;;;1.08;0.60;;;;;;;;;;5052155;28;20024;-74
2022/01/31 01:43:45;;;;;;;0.80;0.70;;;;;;;;;;5036065;28;20024;-75
2022/01/31 01:46:11;;;;;;;0.88;0.75;;;;;;;;;;5036278;28;20037;-75
2022/01/31 01:48:37;;;;;;;0.60;0.60;;;;;;;;;;5034765;28;20408;-75
2022/01/31 01:51:03;;;;;;;0.70;0.60;;;;;;;;;;5034623;28;20477;-75
2022/01/31 01:53:29;;;;;;;0.73;0.52;;;;;;;;;;5046321;28;20028;-75
2022/01/31 01:55:56;;;;;;;0.95;0.60;;;;;;;;;;5055882;28;20036;-75
2022/01/31 01:58:22;;;;;;;0.65;0.65;;;;;;;;;;5054994;28;20124;-75
2022/01/31 02:00:50;;;;;;;5.97;0.93;;;;;;;;;;5055755;28;20025;-75
2022/01/31 02:03:17;;;;;;;1.73;0.55;;;;;;;;;;5055258;28;20036;-75
2022/01/31 02:05:43;;;;;;;2.55;0.70;;;;;;;;;;5055460;28;20021;-75
2022/01/31 02:08:11;;;;;;;0.70;0.60;;;;;;;;;;5055236;28;20028;-74
2022/01/31 02:10:37;;;;;;;1.30;0.80;;;;;;;;;;5055714;28;20040;-75
2022/01/31 02:13:06;;;;;;;0.65;0.60;;;;;;;;;;5055127;28;20025;-75
2022/01/31 02:15:33;;;;;;;0.93;0.60;;;;;;;;;;5054367;28;20028;-74
2022/01/31 02:17:59;;;;;;;1.15;0.70;;;;;;;;;;5055063;28;20108;-75
2022/01/31 02:20:25;;;;;;;0.70;0.63;;;;;;;;;;5055679;28;20396;-75
2022/01/31 02:22:52;;;;;;;0.50;0.43;;;;;;;;;;5039810;28;20036;-75
2022/01/31 02:25:18;;;;;;;3.47;0.75;;;;;;;;;;5052007;28;20021;-75
2022/01/31 02:27:44;;;;;;;0.70;0.63;;;;;;;;;;5033715;28;20036;-74
2022/01/31 02:30:12;;;;;;;0.90;0.63;;;;;;;;;;5042894;28;20044;-74
2022/01/31 02:32:39;;;;;;;0.55;0.55;;;;;;;;;;5055167;28;20025;-74
2022/01/31 02:35:05;;;;;;;0.73;0.57;;;;;;;;;;5055286;28;20508;-75
2022/01/31 02:37:32;;;;;;;1.10;0.57;;;;;;;;;;5055134;28;20488;-75
2022/01/31 02:39:58;;;;;;;0.60;0.60;;;;;;;;;;5036391;28;20021;-75
2022/01/31 02:42:24;;;;;;;0.73;0.70;;;;;;;;;;5045573;28;20021;-75
2022/01/31 02:44:50;;;;;;;1.33;0.50;;;;;;;;;;5054823;28;20066;-75
2022/01/31 02:47:26;;;;;;;0.73;0.50;;;;;;;;;;5054924;28;20025;-75
2022/01/31 02:50:01;;;;;;;0.73;0.70;;;;;;;;;;5054686;28;20017;-75
2022/01/31 02:52:31;;;;;;;0.50;0.50;;;;;;;;;;5051521;28;20029;-75
2022/01/31 02:54:57;;;;;;;1.83;0.60;;;;;;;;;;5034480;28;20435;-74
2022/01/31 02:57:23;;;;;;;0.68;0.60;;;;;;;;;;5054414;28;20025;-75
2022/01/31 02:59:49;;;;;;;0.95;0.50;;;;;;;;;;5054151;28;20086;-75
2022/01/31 03:02:15;;;;;;;0.70;0.60;;;;;;;;;;5052585;28;20052;-75
2022/01/31 03:04:41;;;;;;;0.73;0.57;;;;;;;;;;5054286;28;20025;-75
2022/01/31 03:07:08;;;;;;;1.17;0.63;;;;;;;;;;5054518;28;20048;-75
2022/01/31 03:09:34;;;;;;;1.40;0.60;;;;;;;;;;5052848;28;20027;-75
2022/01/31 03:12:00;;;;;;;0.50;0.40;;;;;;;;;;5052583;28;20021;-75
2022/01/31 03:14:26;;;;;;;0.40;0.40;;;;;;;;;;5054343;28;20021;-75
2022/01/31 03:16:52;;;;;;;1.15;0.50;;;;;;;;;;5054413;28;20043;-75
2022/01/31 03:19:19;;;;;;;0.50;0.38;;;;;;;;;;5053959;28;20025;-75
2022/01/31 03:21:46;;;;;;;1.83;0.50;;;;;;;;;;5053539;28;20488;-75
2022/01/31 03:24:13;;;;;;;0.50;0.50;;;;;;;;;;5053960;28;20424;-75
2022/01/31 03:26:39;;;;;;;0.47;0.47;;;;;;;;;;5054191;28;20017;-75
2022/01/31 03:29:06;;;;;;;1.48;0.45;;;;;;;;;;5051203;28;20033;-75
2022/01/31 03:31:32;;;;;;;2.17;0.50;;;;;;;;;;5033257;28;20053;-75
2022/01/31 03:33:58;;;;;;;1.92;0.57;;;;;;;;;;5033754;28;20543;-75
2022/01/31 03:36:24;;;;;;;0.50;0.30;;;;;;;;;;5033793;28;20031;-75
2022/01/31 03:38:50;;;;;;;1.02;0.50;;;;;;;;;;5033723;28;20026;-75
2022/01/31 03:41:18;;;;;;;2.00;0.40;;;;;;;;;;5036483;28;20033;-75
2022/01/31 03:43:45;;;;;;;0.60;0.43;;;;;;;;;;5053601;28;20036;-75
2022/01/31 03:46:11;;;;;;;1.15;0.50;;;;;;;;;;5053710;28;20040;-75
2022/01/31 03:48:37;;;;;;;1.30;0.68;;;;;;;;;;5053752;28;20025;-75
2022/01/31 03:51:04;;;;;;;0.70;0.50;;;;;;;;;;5053868;28;20086;-75
2022/01/31 03:53:30;;;;;;;0.40;0.40;;;;;;;;;;5041396;28;20449;-75
2022/01/31 03:55:57;;;;;;;0.73;0.45;;;;;;;;;;5033493;28;20025;-75
2022/01/31 03:58:23;;;;;;;0.55;0.40;;;;;;;;;;5033219;28;20044;-75
2022/01/31 04:00:49;;;;;;;1.67;0.40;;;;;;;;;;5033700;28;20400;-75
2022/01/31 04:03:16;;;;;;;1.20;0.40;;;;;;;;;;5033558;28;20025;-75
2022/01/31 04:05:42;;;;;;;0.60;0.50;;;;;;;;;;5033178;28;20023;-75
2022/01/31 04:08:08;;;;;;;0.60;0.40;;;;;;;;;;5033469;28;20044;-75
2022/01/31 04:10:35;;;;;;;0.68;0.40;;;;;;;;;;5033159;28;20018;-75
2022/01/31 04:13:01;;;;;;;0.40;0.40;;;;;;;;;;5032233;28;20025;-75
2022/01/31 04:15:27;;;;;;;0.65;0.40;;;;;;;;;;5031805;28;20029;-75
2022/01/31 04:17:53;;;;;;;1.15;0.75;;;;;;;;;;5033253;28;20048;-75
2022/01/31 04:20:20;;;;;;;0.52;0.35;;;;;;;;;;5033077;28;20032;-75
2022/01/31 04:23:00;;;;;;;1.98;0.73;;;;;;;;;;5033292;28;20512;-75
2022/01/31 04:25:43;;;;;;;1.35;0.40;;;;;;;;;;5032988;28;20075;-75
2022/01/31 04:28:22;;;;;;;1.98;0.40;;;;;;;;;;5033262;28;20025;-75
2022/01/31 04:30:56;;;;;;;0.95;0.60;;;;;;;;;;5047943;28;20021;-75
2022/01/31 04:33:23;;;;;;;0.90;0.40;;;;;;;;;;5052977;28;20043;-75
2022/01/31 04:35:49;;;;;;;0.40;0.40;;;;;;;;;;5052589;28;20025;-75
2022/01/31 04:38:15;;;;;;;0.68;0.50;;;;;;;;;;5052892;28;20037;-75
2022/01/31 04:40:41;;;;;;;0.50;0.50;;;;;;;;;;5052903;28;20032;-75
2022/01/31 04:43:08;;;;;;;0.98;0.50;;;;;;;;;;5032976;28;20434;-75
2022/01/31 04:45:34;;;;;;;0.30;0.30;;;;;;;;;;5032756;28;20591;-75
2022/01/31 04:48:00;;;;;;;0.55;0.55;;;;;;;;;;5032855;28;20124;-75
2022/01/31 04:50:26;;;;;;;0.57;0.40;;;;;;;;;;5032661;28;20559;-75
2022/01/31 04:52:52;;;;;;;0.60;0.50;;;;;;;;;;5038379;28;20029;-75
2022/01/31 04:55:18;;;;;;;0.60;0.60;;;;;;;;;;5051090;28;20029;-75
2022/01/31 04:57:44;;;;;;;0.80;0.50;;;;;;;;;;5051999;28;20087;-75
2022/01/31 05:00:11;;;;;;;0.63;0.40;;;;;;;;;;5050885;28;20021;-75
2022/01/31 05:02:37;;;;;;;1.23;0.40;;;;;;;;;;5052372;28;20463;-75
2022/01/31 05:05:04;;;;;;;0.70;0.40;;;;;;;;;;5051568;28;20025;-75
2022/01/31 05:07:30;;;;;;;0.90;0.52;;;;;;;;;;5052169;28;20044;-75
2022/01/31 05:09:56;;;;;;;0.88;0.52;;;;;;;;;;5052210;28;20543;-75
2022/01/31 05:12:24;;;;;;;0.80;0.60;;;;;;;;;;5050648;28;20396;-75
2022/01/31 05:14:50;;;;;;;0.50;0.40;;;;;;;;;;5052209;28;20017;-75
2022/01/31 05:17:16;;;;;;;0.47;0.47;;;;;;;;;;5052208;28;20021;-75
2022/01/31 05:19:42;;;;;;;0.40;0.40;;;;;;;;;;5052348;28;20392;-75
2022/01/31 05:22:08;;;;;;;1.83;0.50;;;;;;;;;;5051910;28;20108;-75
2022/01/31 05:24:35;;;;;;;0.38;0.30;;;;;;;;;;5052022;28;20028;-75
2022/01/31 05:27:01;;;;;;;1.20;0.45;;;;;;;;;;5052413;28;20035;-75
2022/01/31 05:29:27;;;;;;;1.08;0.60;;;;;;;;;;5048149;28;20491;-75
2022/01/31 05:31:53;;;;;;;1.30;0.57;;;;;;;;;;5031532;28;20029;-75
2022/01/31 05:34:20;;;;;;;0.82;0.52;;;;;;;;;;5031043;28;20025;-75
2022/01/31 05:36:47;;;;;;;0.60;0.60;;;;;;;;;;5032284;28;20036;-76
2022/01/31 05:39:13;;;;;;;0.65;0.65;;;;;;;;;;5032272;28;20029;-74
2022/01/31 05:41:39;;;;;;;0.40;0.40;;;;;;;;;;5037954;28;20386;-74
2022/01/31 05:44:05;;;;;;;1.02;0.60;;;;;;;;;;5052348;28;20029;-74
2022/01/31 05:46:31;;;;;;;0.98;0.60;;;;;;;;;;5051702;28;20031;-74
2022/01/31 05:48:57;;;;;;;0.70;0.60;;;;;;;;;;5050954;28;20031;-74
2022/01/31 05:51:23;;;;;;;0.50;0.50;;;;;;;;;;5051289;28;20033;-74
2022/01/31 05:53:50;;;;;;;0.80;0.60;;;;;;;;;;5036728;28;20029;-74
2022/01/31 05:56:17;;;;;;;0.50;0.40;;;;;;;;;;5031812;28;20036;-74
2022/01/31 05:58:44;;;;;;;1.10;0.57;;;;;;;;;;5031652;28;20037;-74
2022/01/31 06:01:10;;;;;;;1.92;0.47;;;;;;;;;;5031792;28;20378;-74
2022/01/31 06:03:37;;;;;;;1.60;0.35;;;;;;;;;;5031317;28;20022;-75
2022/01/31 06:06:04;;;;;;;0.75;0.60;;;;;;;;;;5031930;28;20034;-74
2022/01/31 06:08:30;;;;;;;1.15;0.40;;;;;;;;;;5031763;28;20408;-74
2022/01/31 06:10:56;;;;;;;0.88;0.47;;;;;;;;;;5031771;28;20026;-74
2022/01/31 06:13:25;;;;;;;0.47;0.40;;;;;;;;;;5031127;28;20025;-74
2022/01/31 06:15:52;;;;;;;0.50;0.40;;;;;;;;;;5031687;28;20033;-74
2022/01/31 06:18:18;;;;;;;3.80;0.73;;;;;;;;;;5035074;28;20036;-74
2022/01/31 06:20:45;;;;;;;0.50;0.50;;;;;;;;;;5035341;28;20029;-74
2022/01/31 06:23:12;;;;;;;1.35;0.43;;;;;;;;;;5035378;28;20072;-74
2022/01/31 06:25:38;;;;;;;2.38;0.70;;;;;;;;;;5035589;28;20533;-74
2022/01/31 06:28:05;;;;;;;2.55;0.60;;;;;;;;;;5035499;28;20025;-74
2022/01/31 06:30:31;;;;;;;0.50;0.50;;;;;;;;;;5047652;28;20036;-74
2022/01/31 06:32:57;;;;;;;0.50;0.40;;;;;;;;;;5055114;28;20484;-74
2022/01/31 06:35:24;;;;;;;2.00;0.68;;;;;;;;;;5054918;28;20028;-76
2022/01/31 06:37:50;;;;;;;1.25;0.57;;;;;;;;;;5054855;28;20031;-74
2022/01/31 06:40:16;;;;;;;0.90;0.60;;;;;;;;;;5054855;28;20032;-74
2022/01/31 06:42:43;;;;;;;0.65;0.50;;;;;;;;;;5038468;28;20075;-74
2022/01/31 06:45:09;;;;;;;2.83;0.47;;;;;;;;;;5035000;28;20029;-74
2022/01/31 06:47:35;;;;;;;1.95;0.55;;;;;;;;;;5034607;28;20026;-74
2022/01/31 06:50:04;;;;;;;1.70;0.50;;;;;;;;;;5035106;28;20037;-74
2022/01/31 06:52:33;;;;;;;1.50;0.60;;;;;;;;;;5036865;28;20036;-74
2022/01/31 06:55:02;;;;;;;1.45;0.68;;;;;;;;;;5054755;28;20057;-74
2022/01/31 06:57:33;;;;;;;1.27;0.60;;;;;;;;;;5053192;28;20037;-74
2022/01/31 07:00:00;;;;;;;0.77;0.50;;;;;;;;;;5054525;28;20053;-74
2022/01/31 07:02:26;;;;;;;1.73;0.57;;;;;;;;;;5054122;28;20403;-74
2022/01/31 07:04:52;;;;;;;0.45;0.43;;;;;;;;;;5054696;28;20033;-74
2022/01/31 07:07:18;;;;;;;0.80;0.60;;;;;;;;;;5052941;28;20032;-74
2022/01/31 07:09:44;;;;;;;1.05;0.60;;;;;;;;;;5054775;28;20457;-74
2022/01/31 07:12:12;;;;;;;3.10;0.57;;;;;;;;;;5053799;28;20388;-74
2022/01/31 07:14:38;;;;;;;1.48;0.70;;;;;;;;;;5054617;28;20024;-74
2022/01/31 07:17:06;;;;;;;0.40;0.40;;;;;;;;;;5054106;28;20097;-74
2022/01/31 07:19:35;;;;;;;0.88;0.50;;;;;;;;;;5054299;28;20039;-74
2022/01/31 07:22:04;;;;;;;2.97;0.60;;;;;;;;;;5053740;28;20056;-74
2022/01/31 07:24:43;;;;;;;0.45;0.45;;;;;;;;;;5052746;28;20412;-74
2022/01/31 07:27:09;;;;;;;1.50;0.57;;;;;;;;;;5053853;28;20032;-74
2022/01/31 07:29:35;;;;;;;3.50;0.60;;;;;;;;;;5048022;28;20611;-74
2022/01/31 07:32:01;;;;;;;0.68;0.50;;;;;;;;;;5033454;28;20026;-74
2022/01/31 07:34:28;;;;;;;0.60;0.60;;;;;;;;;;5033889;28;20026;-74
2022/01/31 07:36:54;;;;;;;0.43;0.43;;;;;;;;;;5034305;28;20444;-74
2022/01/31 07:39:20;;;;;;;0.60;0.50;;;;;;;;;;5032654;28;20033;-74
2022/01/31 07:41:47;;;;;;;2.05;0.50;;;;;;;;;;5040574;28;20043;-74
2022/01/31 07:44:13;;;;;;;1.23;0.70;;;;;;;;;;5053772;28;20021;-74
2022/01/31 07:46:40;;;;;;;1.30;0.50;;;;;;;;;;5053859;28;20444;-74
2022/01/31 07:49:07;;;;;;;0.63;0.52;;;;;;;;;;5053754;28;20028;-74
2022/01/31 07:51:35;;;;;;;0.77;0.50;;;;;;;;;;5049417;28;20539;-75
2022/01/31 07:54:01;;;;;;;0.38;0.38;;;;;;;;;;5051690;28;20036;-74
2022/01/31 07:56:27;;;;;;;0.90;0.45;;;;;;;;;;5053525;28;20096;-74
2022/01/31 07:58:53;;;;;;;1.13;0.50;;;;;;;;;;5051275;28;20463;-74
2022/01/31 08:01:20;;;;;;;1.50;0.50;;;;;;;;;;5052546;28;20028;-76
2022/01/31 08:03:47;;;;;;;2.05;0.60;;;;;;;;;;5051524;28;20028;-75
2022/01/31 08:06:13;;;;;;;3.35;1.15;;;;;;;;;;5053042;28;20024;-75
2022/01/31 08:08:40;;;;;;;0.85;0.60;;;;;;;;;;5050372;28;20025;-75
2022/01/31 08:11:06;;;;;;;3.50;0.95;;;;;;;;;;5050817;28;20029;-75
2022/01/31 08:13:33;;;;;;;1.55;0.85;;;;;;;;;;5042331;28;20025;-76
2022/01/31 08:16:02;;;;;;;3.25;0.75;;;;;;;;;;5045592;28;20037;-75
2022/01/31 08:18:29;;;;;;;4.70;1.40;;;;;;;;;;5042072;28;20033;-76
2022/01/31 08:20:55;;;;;;;1.90;1.00;;;;;;;;;;5047107;28;20427;-75
2022/01/31 08:23:21;;;;;;;4.13;1.77;;;;;;;;;;5045715;28;20032;-75
2022/01/31 08:25:49;;;;;;;2.25;0.85;;;;;;;;;;5052504;28;20024;-76
2022/01/31 08:28:20;;;;;;;1.55;0.60;;;;;;;;;;5052009;28;20044;-75
2022/01/31 08:30:57;;;;;;;1.00;0.60;;;;;;;;;;5048969;28;20017;-74
2022/01/31 08:33:35;;;;;;;1.38;0.63;;;;;;;;;;5035814;28;20040;-74
2022/01/31 08:36:01;;;;;;;1.15;0.40;;;;;;;;;;5050804;28;20041;-75
2022/01/31 08:38:28;;;;;;;1.48;0.60;;;;;;;;;;5043718;28;20396;-74
2022/01/31 08:40:54;;;;;;;3.00;0.60;;;;;;;;;;5035424;28;20022;-75
2022/01/31 08:43:20;;;;;;;1.90;0.90;;;;;;;;;;5047099;28;20064;-74
2022/01/31 08:45:48;;;;;;;6.55;0.63;;;;;;;;;;5042402;28;20025;-74
2022/01/31 08:48:14;;;;;;;2.38;0.75;;;;;;;;;;5043969;28;20029;-74
2022/01/31 08:50:40;;;;;;;2.55;0.70;;;;;;;;;;5042939;28;20456;-75
2022/01/31 08:53:06;;;;;;;5.10;1.00;;;;;;;;;;5038621;28;20124;-76
2022/01/31 08:55:32;;;;;;;2.50;1.00;;;;;;;;;;5037952;28;20032;-76
2022/01/31 08:57:58;;;;;;;3.40;0.70;;;;;;;;;;5040445;28;20084;-76
2022/01/31 09:00:36;;;;;;;2.70;0.73;;;;;;;;;;5047221;28;20060;-76
2022/01/31 09:03:21;;;;;;;3.08;1.38;;;;;;;;;;5043451;28;20030;-75
2022/01/31 09:05:47;;;;;;;6.90;0.90;;;;;;;;;;5044918;28;20021;-74
2022/01/31 09:08:14;;;;;;;4.80;0.63;;;;;;;;;;5046969;28;20029;-75
2022/01/31 09:10:43;;;;;;;3.00;0.73;;;;;;;;;;5047533;28;20025;-77
2022/01/31 09:13:10;;;;;;;4.80;0.85;;;;;;;;;;5049289;28;20037;-75
2022/01/31 09:15:36;;;;;;;3.78;0.77;;;;;;;;;;5049053;28;20021;-74
2022/01/31 09:18:02;;;;;;;4.57;0.80;;;;;;;;;;5046271;28;20040;-74
2022/01/31 09:20:28;;;;;;;2.30;0.65;;;;;;;;;;5048030;28;20021;-74
2022/01/31 09:22:54;;;;;;;5.90;0.80;;;;;;;;;;5046005;28;20468;-74
2022/01/31 09:25:20;;;;;;;2.90;0.50;;;;;;;;;;5040091;28;20392;-73
2022/01/31 09:27:47;;;;;;;3.63;0.75;;;;;;;;;;5049569;28;20029;-73
2022/01/31 09:30:14;;;;;;;3.92;0.60;;;;;;;;;;5047194;28;20131;-72
2022/01/31 09:32:40;;;;;;;6.53;0.88;;;;;;;;;;5046534;28;20033;-74
2022/01/31 09:35:06;;;;;;;3.17;0.63;;;;;;;;;;5044282;28;20027;-74
2022/01/31 09:37:33;;;;;;;5.93;1.02;;;;;;;;;;5043801;28;20033;-72
2022/01/31 09:40:04;;;;;;;6.28;0.68;;;;;;;;;;5051975;28;20025;-73
2022/01/31 09:42:52;;;;;;;1.45;0.50;;;;;;;;;;5040429;28;20055;-73
2022/01/31 09:45:32;;;;;;;5.45;0.60;;;;;;;;;;5044867;28;20036;-73
2022/01/31 09:50:27;;;;;;;4.13;1.10;;;;;;;;;;5048463;28;20256;-72
2022/01/31 09:52:56;;;;;;;5.22;0.57;;;;;;;;;;5047463;28;20029;-72
2022/01/31 09:55:25;;;;;;;5.32;1.00;;;;;;;;;;5051834;28;20463;-72
2022/01/31 09:57:51;;;;;;;2.35;0.40;;;;;;;;;;5051448;28;20079;-73
2022/01/31 10:00:18;;;;;;;2.50;0.55;;;;;;;;;;5045925;28;20022;-73
2022/01/31 10:03:04;;;;;;;4.72;0.70;;;;;;;;;;5048966;28;20029;-73
2022/01/31 10:05:30;;;;;;;2.40;0.60;;;;;;;;;;5051882;28;20031;-72
2022/01/31 10:08:07;;;;;;;5.35;0.93;;;;;;;;;;5051810;28;20469;-74
2022/01/31 10:10:39;;;;;;;2.58;0.50;;;;;;;;;;5043780;28;20431;-73
2022/01/31 10:16:30;;;;;;;3.47;0.77;;;;;;;;;;5030825;28;20043;-73
2022/01/31 10:19:05;;;;;;;2.45;0.60;;;;;;;;;;5045599;28;20025;-75
2022/01/31 10:21:32;;;;;;;4.32;0.57;;;;;;;;;;5046571;28;20071;-76
2022/01/31 10:23:58;;;;;;;1.20;0.50;;;;;;;;;;5046897;28;20020;-75
2022/01/31 10:26:42;;;;;;;2.15;0.88;;;;;;;;;;5048045;28;20066;-75
2022/01/31 10:29:09;;;;;;;3.08;1.17;;;;;;;;;;5049401;28;20712;-75
2022/01/31 10:31:35;;;;;;;0.70;0.30;;;;;;;;;;5047200;28;20116;-75
2022/01/31 10:34:22;;;;;;;4.57;0.60;;;;;;;;;;5042280;28;20080;-75
2022/01/31 10:36:49;;;;;;;3.25;0.35;;;;;;;;;;5043772;28;20587;-76
2022/01/31 10:54:08;;;;;;;4.18;0.50;;;;;;;;;;5045152;28;20036;-77
2022/01/31 10:56:39;;;;;;;4.78;0.57;;;;;;;;;;5051726;28;20056;-77
2022/01/31 10:59:10;;;;;;;4.55;0.85;;;;;;;;;;5052360;28;20102;-78
2022/01/31 11:01:40;;;;;;;3.10;0.50;;;;;;;;;;5053124;28;20676;-80
2022/01/31 11:04:10;;;;;;;5.15;0.47;;;;;;;;;;5041503;28;20104;-77
2022/01/31 11:06:36;;;;;;;1.45;0.40;;;;;;;;;;5048016;28;20021;-76
2022/01/31 11:09:08;;;;;;;9.73;0.60;;;;;;;;;;5045063;28;20125;-76
2022/01/31 11:11:34;;;;;;;0.98;0.40;;;;;;;;;;5040649;28;20029;-76
2022/01/31 11:14:01;;;;;;;1.77;0.35;;;;;;;;;;5051519;28;20039;-76
2022/01/31 11:16:28;;;;;;;1.25;0.40;;;;;;;;;;5051914;28;20017;-77
2022/01/31 11:18:56;;;;;;;3.03;0.70;;;;;;;;;;5050147;28;20059;-76
2022/01/31 11:21:27;;;;;;;1.38;0.40;;;;;;;;;;5047921;28;20021;-77
2022/01/31 11:23:53;;;;;;;4.68;0.65;;;;;;;;;;5040847;28;20056;-78
2022/01/31 11:26:20;;;;;;;4.55;0.50;;;;;;;;;;5039414;28;20009;-77
2022/01/31 11:28:47;;;;;;;4.35;0.50;;;;;;;;;;5046145;28;20057;-76
2022/01/31 11:31:14;;;;;;;6.28;0.57;;;;;;;;;;5045776;28;20021;-76
2022/01/31 11:33:40;;;;;;;4.25;0.63;;;;;;;;;;5045799;28;20926;-76
2022/01/31 11:36:17;;;;;;;8.25;1.13;;;;;;;;;;5045580;28;20033;-75
2022/01/31 11:38:44;;;;;;;6.75;0.50;;;;;;;;;;5045486;28;20031;-77
2022/01/31 11:41:10;;;;;;;2.60;0.70;;;;;;;;;;5043117;28;20013;-76
2022/01/31 11:43:36;;;;;;;3.17;0.40;;;;;;;;;;5039749;28;20108;-76
2022/01/31 11:46:04;;;;;;;4.05;0.40;;;;;;;;;;5046101;28;20112;-77
2022/01/31 11:48:31;;;;;;;1.13;0.25;;;;;;;;;;5047891;28;20098;-76
2022/01/31 11:50:59;;;;;;;3.05;0.38;;;;;;;;;;5046699;28;20594;-77
2022/01/31 11:53:35;;;;;;;4.32;0.38;;;;;;;;;;5041013;28;20190;-76
2022/01/31 11:56:09;;;;;;;4.97;0.50;;;;;;;;;;5036106;28;20016;-75
2022/01/31 11:58:43;;;;;;;5.00;0.47;;;;;;;;;;5042839;28;20049;-77
2022/01/31 12:01:09;;;;;;;8.82;0.93;;;;;;;;;;5040217;28;20675;-76
2022/01/31 12:03:36;;;;;;;5.05;0.40;;;;;;;;;;5041758;28;20536;-75
2022/01/31 12:06:09;;;;;;;7.47;0.80;;;;;;;;;;5041990;28;20105;-76
2022/01/31 12:08:41;;;;;;;6.60;0.38;;;;;;;;;;5048269;28;20041;-75
2022/01/31 12:11:15;;;;;;;10.75;0.70;;;;;;;;;;5049836;28;20013;-75
2022/01/31 12:13:54;;;;;;;7.82;0.50;;;;;;;;;;5049033;28;20032;-76
2022/01/31 12:16:47;;;;;;;4.57;0.47;;;;;;;;;;5046613;28;20025;-75
2022/01/31 12:19:47;;;;;;;4.72;0.65;;;;;;;;;;5044361;28;20021;-75
2022/01/31 12:22:51;;;;;;;5.07;0.70;;;;;;;;;;5043408;28;20052;-75
2022/01/31 12:25:20;;;;;;;4.00;0.63;;;;;;;;;;5041373;28;20059;-75
2022/01/31 12:27:46;;;;;;;5.95;0.40;;;;;;;;;;5040373;28;20029;-75
2022/01/31 12:30:29;;;;;;;2.40;0.40;;;;;;;;;;5038503;28;20029;-75
2022/01/31 12:32:55;;;;;;;5.35;0.70;;;;;;;;;;5043089;28;20116;-75
2022/01/31 12:35:30;;;;;;;2.95;1.02;;;;;;;;;;5043878;28;20017;-76
2022/01/31 12:37:56;;;;;;;6.32;0.50;;;;;;;;;;5046651;28;20037;-75
2022/01/31 12:40:30;;;;;;;2.40;0.40;;;;;;;;;;5048729;28;20017;-75
2022/01/31 12:43:11;;;;;;;2.08;0.40;;;;;;;;;;5041964;28;20436;-75
2022/01/31 12:45:41;;;;;;;5.30;0.40;;;;;;;;;;5038507;28;20024;-76
2022/01/31 12:48:07;;;;;;;5.68;0.50;;;;;;;;;;5048496;28;20042;-77
2022/01/31 12:50:34;;;;;;;5.10;0.47;;;;;;;;;;5048708;28;20437;-77
2022/01/31 12:53:05;;;;;;;5.25;0.65;;;;;;;;;;5041727;28;20086;-76
2022/01/31 12:55:32;;;;;;;2.50;0.40;;;;;;;;;;5053037;28;20025;-75
2022/01/31 12:57:58;;;;;;;4.28;0.50;;;;;;;;;;5044962;28;20049;-77
2022/01/31 13:00:34;;;;;;;7.10;0.52;;;;;;;;;;5047672;28;20017;-75
2022/01/31 13:03:00;;;;;;;2.20;0.43;;;;;;;;;;5047992;28;20687;-74
2022/01/31 13:05:33;;;;;;;1.95;0.57;;;;;;;;;;5049222;28;20120;-74
2022/01/31 13:07:59;;;;;;;6.70;0.60;;;;;;;;;;5047694;28;20114;-74
2022/01/31 13:10:25;;;;;;;3.22;0.47;;;;;;;;;;5046914;28;20047;-74
2022/01/31 13:12:59;;;;;;;2.42;0.30;;;;;;;;;;5045983;28;20060;-74
2022/01/31 13:15:25;;;;;;;5.07;0.60;;;;;;;;;;5040220;28;20017;-73
2022/01/31 13:17:51;;;;;;;1.90;0.50;;;;;;;;;;5040691;28;20028;-75
2022/01/31 13:20:17;;;;;;;1.30;0.30;;;;;;;;;;5046328;28;20021;-74
2022/01/31 13:22:44;;;;;;;4.82;0.60;;;;;;;;;;5045161;28;20108;-74
2022/01/31 13:25:11;;;;;;;1.75;0.38;;;;;;;;;;5048604;28;20100;-74
2022/01/31 13:27:41;;;;;;;2.33;0.20;;;;;;;;;;5049608;28;20025;-74
2022/01/31 13:30:09;;;;;;;2.30;0.30;;;;;;;;;;5044067;28;20029;-74
2022/01/31 13:32:36;;;;;;;2.42;0.52;;;;;;;;;;5053065;28;20456;-77
2022/01/31 13:35:16;;;;;;;1.60;0.30;;;;;;;;;;5054727;28;20028;-77
2022/01/31 13:37:44;;;;;;;3.10;0.20;;;;;;;;;;5054324;28;20428;-74
2022/01/31 13:40:21;;;;;;;3.08;0.40;;;;;;;;;;5052779;28;20012;-77
2022/01/31 13:43:12;;;;;;;4.15;0.60;;;;;;;;;;5038318;28;20030;-74
2022/01/31 13:45:57;;;;;;;1.65;0.40;;;;;;;;;;5056731;28;20033;-77
2022/01/31 13:51:32;;;;;;;2.78;0.50;;;;;;;;;;5044362;28;20037;-75
2022/01/31 13:54:08;;;;;;;0.68;0.30;;;;;;;;;;5051773;28;20086;-75
2022/01/31 13:56:35;;;;;;;1.67;0.40;;;;;;;;;;5055195;28;20103;-75
2022/01/31 13:59:04;;;;;;;1.15;0.28;;;;;;;;;;5049366;28;20051;-74
2022/01/31 14:01:32;;;;;;;1.75;0.20;;;;;;;;;;5049297;28;20503;-73
2022/01/31 14:03:58;;;;;;;3.10;0.40;;;;;;;;;;5043054;28;20435;-74
2022/01/31 14:06:24;;;;;;;1.15;0.30;;;;;;;;;;5055222;28;20040;-75
2022/01/31 14:08:54;;;;;;;4.82;0.40;;;;;;;;;;5047553;28;20052;-74
2022/01/31 14:11:22;;;;;;;0.47;0.30;;;;;;;;;;5037819;28;20092;-75
2022/01/31 14:13:58;;;;;;;1.38;0.50;;;;;;;;;;5049415;28;20025;-72
2022/01/31 14:16:28;;;;;;;5.82;0.45;;;;;;;;;;5049443;28;20028;-74
2022/01/31 14:19:14;;;;;;;1.13;0.22;;;;;;;;;;5045098;28;20057;-73
2022/01/31 14:21:44;;;;;;;1.58;0.35;;;;;;;;;;5053169;28;20118;-73
2022/01/31 14:24:10;;;;;;;3.42;0.40;;;;;;;;;;5046336;28;20021;-73
2022/01/31 14:26:50;;;;;;;2.20;0.32;;;;;;;;;;5053965;28;20381;-74
2022/01/31 14:29:16;;;;;;;2.05;0.30;;;;;;;;;;5043742;28;20060;-73
2022/01/31 14:31:46;;;;;;;2.88;0.40;;;;;;;;;;5046274;28;20515;-73
2022/01/31 14:34:14;;;;;;;1.92;0.32;;;;;;;;;;5053221;28;20594;-73
2022/01/31 14:36:44;;;;;;;1.75;0.60;;;;;;;;;;5040870;28;20111;-75
2022/01/31 14:42:35;;;;;;;2.00;0.30;;;;;;;;;;5043473;28;20060;-73
2022/01/31 14:47:47;;;;;;;4.03;0.30;;;;;;;;;;5047393;28;20106;-73
2022/01/31 14:50:17;;;;;;;5.00;0.40;;;;;;;;;;5040379;28;20029;-73
2022/01/31 14:52:43;;;;;;;1.67;0.30;;;;;;;;;;5042410;28;20397;-73
2022/01/31 14:55:11;;;;;;;2.88;0.32;;;;;;;;;;5034734;28;20346;-72
2022/01/31 14:57:38;;;;;;;0.85;0.15;;;;;;;;;;5034210;28;20034;-73
2022/01/31 15:00:05;;;;;;;1.63;0.55;;;;;;;;;;5034644;28;20552;-74
2022/01/31 15:02:32;;;;;;;4.35;0.30;;;;;;;;;;5042699;28;20029;-73
2022/01/31 15:05:01;;;;;;;2.33;0.40;;;;;;;;;;5040786;28;20044;-74
2022/01/31 15:07:27;;;;;;;1.75;0.40;;;;;;;;;;5041074;28;20076;-73
2022/01/31 15:09:53;;;;;;;0.45;0.35;;;;;;;;;;5046291;28;20566;-73
2022/01/31 15:12:20;;;;;;;0.75;0.20;;;;;;;;;;5041876;28;20024;-74
2022/01/31 15:14:47;;;;;;;2.22;0.40;;;;;;;;;;5047414;28;20029;-75
2022/01/31 15:17:15;;;;;;;0.75;0.38;;;;;;;;;;5051314;28;20025;-73
2022/01/31 15:19:41;;;;;;;1.35;0.20;;;;;;;;;;5046269;28;20052;-74
2022/01/31 15:22:08;;;;;;;1.25;0.30;;;;;;;;;;5050407;28;20029;-73